sensor_id;sensor_type;location;lat;lon;timestamp;temperature;humidity
3350;DHT22;1688;51.000;13.684;2022-10-24T00:01:47;15.40;99.90
3350;DHT22;1688;51.000;13.684;2022-10-24T00:04:13;15.50;99.90
3350;DHT22;1688;51.000;13.684;2022-10-24T00:06:40;15.40;99.90
3350;DHT22;1688;51.000;13.684;2022-10-24T00:09:06;15.40;99.90
3350;DHT22;1688;51.000;13.684;2022-10-24T00:11:32;15.50;99.90
3350;DHT22;1688;51.000;13.684;2022-10-24T00:14:00;15.40;99.90
3350;DHT22;1688;51.000;13.684;2022-10-24T00:16:27;15.40;99.90
3350;DHT22;1688;51.000;13.684;2022-10-24T00:18:56;15.40;99.90
3350;DHT22;1688;51.000;13.684;2022-10-24T00:21:22;15.10;99.90
3350;DHT22;1688;51.000;13.684;2022-10-24T00:23:47;14.90;99.90
3350;DHT22;1688;51.000;13.684;2022-10-24T00:26:13;14.80;99.90
3350;DHT22;1688;51.000;13.684;2022-10-24T00:28:41;14.80;99.90
3350;DHT22;1688;51.000;13.684;2022-10-24T00:31:12;14.90;99.90
3350;DHT22;1688;51.000;13.684;2022-10-24T00:33:38;15.00;99.90
3350;DHT22;1688;51.000;13.684;2022-10-24T00:36:03;15.00;99.90
3350;DHT22;1688;51.000;13.684;2022-10-24T00:38:29;15.00;99.90
3350;DHT22;1688;51.000;13.684;2022-10-24T00:40:55;15.10;99.90
3350;DHT22;1688;51.000;13.684;2022-10-24T00:43:23;15.10;99.90
3350;DHT22;1688;51.000;13.684;2022-10-24T00:45:54;15.00;99.90
3350;DHT22;1688;51.000;13.684;2022-10-24T00:48:46;15.10;99.90
3350;DHT22;1688;51.000;13.684;2022-10-24T00:51:18;15.10;99.90
3350;DHT22;1688;51.000;13.684;2022-10-24T00:53:52;15.10;99.90
3350;DHT22;1688;51.000;13.684;2022-10-24T00:56:22;15.30;99.90
3350;DHT22;1688;51.000;13.684;2022-10-24T00:58:56;15.30;99.90
3350;DHT22;1688;51.000;13.684;2022-10-24T01:01:24;15.30;99.90
3350;DHT22;1688;51.000;13.684;2022-10-24T01:03:51;15.40;99.90
3350;DHT22;1688;51.000;13.684;2022-10-24T01:06:45;15.10;99.90
3350;DHT22;1688;51.000;13.684;2022-10-24T01:09:27;14.80;99.90
3350;DHT22;1688;51.000;13.684;2022-10-24T01:12:24;14.90;99.90
3350;DHT22;1688;51.000;13.684;2022-10-24T01:15:16;15.00;99.90
3350;DHT22;1688;51.000;13.684;2022-10-24T01:21:06;15.00;99.90
3350;DHT22;1688;51.000;13.684;2022-10-24T01:23:52;14.90;99.90
3350;DHT22;1688;51.000;13.684;2022-10-24T01:26:50;15.00;99.90
3350;DHT22;1688;51.000;13.684;2022-10-24T01:29:48;15.00;99.90
3350;DHT22;1688;51.000;13.684;2022-10-24T01:38:10;15.30;99.90
3350;DHT22;1688;51.000;13.684;2022-10-24T01:40:48;15.50;99.90
3350;DHT22;1688;51.000;13.684;2022-10-24T01:43:19;15.50;99.90
3350;DHT22;1688;51.000;13.684;2022-10-24T01:45:51;15.60;99.90
3350;DHT22;1688;51.000;13.684;2022-10-24T01:48:20;15.60;99.90
3350;DHT22;1688;51.000;13.684;2022-10-24T01:50:51;15.60;99.90
3350;DHT22;1688;51.000;13.684;2022-10-24T01:53:20;15.70;99.90
3350;DHT22;1688;51.000;13.684;2022-10-24T01:55:48;15.80;99.90
3350;DHT22;1688;51.000;13.684;2022-10-24T01:58:14;16.00;99.90
3350;DHT22;1688;51.000;13.684;2022-10-24T02:00:43;16.10;99.90
3350;DHT22;1688;51.000;13.684;2022-10-24T02:03:31;16.20;99.90
3350;DHT22;1688;51.000;13.684;2022-10-24T02:06:11;16.30;99.90
3350;DHT22;1688;51.000;13.684;2022-10-24T02:08:49;16.50;99.90
3350;DHT22;1688;51.000;13.684;2022-10-24T02:11:16;16.60;99.90
3350;DHT22;1688;51.000;13.684;2022-10-24T02:14:08;16.70;99.90
3350;DHT22;1688;51.000;13.684;2022-10-24T02:16:32;16.70;99.90
3350;DHT22;1688;51.000;13.684;2022-10-24T02:19:03;16.90;99.90
3350;DHT22;1688;51.000;13.684;2022-10-24T02:21:48;16.90;99.90
3350;DHT22;1688;51.000;13.684;2022-10-24T02:24:24;17.00;99.90
3350;DHT22;1688;51.000;13.684;2022-10-24T02:27:23;17.10;99.90
3350;DHT22;1688;51.000;13.684;2022-10-24T02:30:12;17.10;99.90
3350;DHT22;1688;51.000;13.684;2022-10-24T02:32:47;17.10;99.90
3350;DHT22;1688;51.000;13.684;2022-10-24T02:35:15;17.20;99.90
3350;DHT22;1688;51.000;13.684;2022-10-24T02:37:45;17.20;99.90
3350;DHT22;1688;51.000;13.684;2022-10-24T02:40:13;17.20;99.90
3350;DHT22;1688;51.000;13.684;2022-10-24T02:42:42;17.20;99.90
3350;DHT22;1688;51.000;13.684;2022-10-24T02:45:09;17.20;99.90
3350;DHT22;1688;51.000;13.684;2022-10-24T02:47:39;17.20;99.90
3350;DHT22;1688;51.000;13.684;2022-10-24T02:50:06;17.30;99.90
3350;DHT22;1688;51.000;13.684;2022-10-24T02:52:32;17.30;99.90
3350;DHT22;1688;51.000;13.684;2022-10-24T02:54:58;17.30;99.90
3350;DHT22;1688;51.000;13.684;2022-10-24T02:57:24;17.40;99.90
3350;DHT22;1688;51.000;13.684;2022-10-24T02:59:52;17.50;99.90
3350;DHT22;1688;51.000;13.684;2022-10-24T03:02:18;17.50;99.90
3350;DHT22;1688;51.000;13.684;2022-10-24T03:04:44;17.60;99.90
3350;DHT22;1688;51.000;13.684;2022-10-24T03:07:10;17.60;99.90
3350;DHT22;1688;51.000;13.684;2022-10-24T03:09:36;17.60;99.90
3350;DHT22;1688;51.000;13.684;2022-10-24T03:12:02;17.60;99.90
3350;DHT22;1688;51.000;13.684;2022-10-24T03:14:29;17.60;99.90
3350;DHT22;1688;51.000;13.684;2022-10-24T03:16:57;17.50;99.90
3350;DHT22;1688;51.000;13.684;2022-10-24T03:19:23;17.50;99.90
3350;DHT22;1688;51.000;13.684;2022-10-24T03:21:49;17.60;99.90
3350;DHT22;1688;51.000;13.684;2022-10-24T03:24:16;17.60;99.90
3350;DHT22;1688;51.000;13.684;2022-10-24T03:26:41;17.70;99.90
3350;DHT22;1688;51.000;13.684;2022-10-24T03:29:07;17.70;99.90
3350;DHT22;1688;51.000;13.684;2022-10-24T03:31:33;17.60;99.90
3350;DHT22;1688;51.000;13.684;2022-10-24T03:33:59;17.60;99.90
3350;DHT22;1688;51.000;13.684;2022-10-24T03:36:24;17.50;99.90
3350;DHT22;1688;51.000;13.684;2022-10-24T03:38:50;17.50;99.90
3350;DHT22;1688;51.000;13.684;2022-10-24T03:41:16;17.50;99.90
3350;DHT22;1688;51.000;13.684;2022-10-24T03:43:42;17.60;99.90
3350;DHT22;1688;51.000;13.684;2022-10-24T03:46:08;17.50;99.90
3350;DHT22;1688;51.000;13.684;2022-10-24T03:48:33;17.50;99.90
3350;DHT22;1688;51.000;13.684;2022-10-24T03:50:59;17.60;99.90
3350;DHT22;1688;51.000;13.684;2022-10-24T03:53:25;17.60;99.90
3350;DHT22;1688;51.000;13.684;2022-10-24T03:55:51;17.70;99.90
3350;DHT22;1688;51.000;13.684;2022-10-24T03:58:16;17.80;99.90
3350;DHT22;1688;51.000;13.684;2022-10-24T04:00:42;17.70;99.90
3350;DHT22;1688;51.000;13.684;2022-10-24T04:03:09;17.70;99.90
3350;DHT22;1688;51.000;13.684;2022-10-24T04:05:36;17.70;99.90
3350;DHT22;1688;51.000;13.684;2022-10-24T04:08:02;17.70;99.90
3350;DHT22;1688;51.000;13.684;2022-10-24T04:10:28;17.70;99.90
3350;DHT22;1688;51.000;13.684;2022-10-24T04:12:54;17.70;99.90
3350;DHT22;1688;51.000;13.684;2022-10-24T04:15:21;17.60;99.90
3350;DHT22;1688;51.000;13.684;2022-10-24T04:17:47;17.70;99.90
3350;DHT22;1688;51.000;13.684;2022-10-24T04:20:14;17.60;99.90
3350;DHT22;1688;51.000;13.684;2022-10-24T04:22:44;17.60;99.90
3350;DHT22;1688;51.000;13.684;2022-10-24T04:25:10;17.70;99.90
3350;DHT22;1688;51.000;13.684;2022-10-24T04:27:36;17.70;99.90
3350;DHT22;1688;51.000;13.684;2022-10-24T04:30:09;17.70;99.90
3350;DHT22;1688;51.000;13.684;2022-10-24T04:32:35;17.60;99.90
3350;DHT22;1688;51.000;13.684;2022-10-24T04:35:02;17.60;99.90
3350;DHT22;1688;51.000;13.684;2022-10-24T04:37:28;17.60;99.90
3350;DHT22;1688;51.000;13.684;2022-10-24T04:39:54;17.60;99.90
3350;DHT22;1688;51.000;13.684;2022-10-24T04:42:21;17.50;99.90
3350;DHT22;1688;51.000;13.684;2022-10-24T04:44:47;17.50;99.90
3350;DHT22;1688;51.000;13.684;2022-10-24T04:47:12;17.60;99.90
3350;DHT22;1688;51.000;13.684;2022-10-24T04:49:39;17.50;99.90
3350;DHT22;1688;51.000;13.684;2022-10-24T04:52:04;17.50;99.90
3350;DHT22;1688;51.000;13.684;2022-10-24T04:54:30;17.50;99.90
3350;DHT22;1688;51.000;13.684;2022-10-24T04:56:56;17.50;99.90
3350;DHT22;1688;51.000;13.684;2022-10-24T04:59:24;17.50;99.90
3350;DHT22;1688;51.000;13.684;2022-10-24T05:01:50;17.60;99.90
3350;DHT22;1688;51.000;13.684;2022-10-24T05:04:16;17.60;99.90
3350;DHT22;1688;51.000;13.684;2022-10-24T05:06:42;17.60;99.90
3350;DHT22;1688;51.000;13.684;2022-10-24T05:09:08;17.60;99.90
3350;DHT22;1688;51.000;13.684;2022-10-24T05:11:34;17.60;99.90
3350;DHT22;1688;51.000;13.684;2022-10-24T05:13:59;17.60;99.90
3350;DHT22;1688;51.000;13.684;2022-10-24T05:16:25;17.60;99.90
3350;DHT22;1688;51.000;13.684;2022-10-24T05:18:51;17.60;99.90
3350;DHT22;1688;51.000;13.684;2022-10-24T05:21:17;17.60;99.90
3350;DHT22;1688;51.000;13.684;2022-10-24T05:23:43;17.60;99.90
3350;DHT22;1688;51.000;13.684;2022-10-24T05:26:08;17.70;99.90
3350;DHT22;1688;51.000;13.684;2022-10-24T05:28:34;17.80;99.90
3350;DHT22;1688;51.000;13.684;2022-10-24T05:31:00;17.80;99.90
3350;DHT22;1688;51.000;13.684;2022-10-24T05:33:26;17.70;99.90
3350;DHT22;1688;51.000;13.684;2022-10-24T05:35:53;17.70;99.90
3350;DHT22;1688;51.000;13.684;2022-10-24T05:38:19;17.60;99.90
3350;DHT22;1688;51.000;13.684;2022-10-24T05:40:45;17.60;99.90
3350;DHT22;1688;51.000;13.684;2022-10-24T05:43:14;17.60;99.90
3350;DHT22;1688;51.000;13.684;2022-10-24T05:45:41;17.60;99.90
3350;DHT22;1688;51.000;13.684;2022-10-24T05:48:07;17.60;99.90
3350;DHT22;1688;51.000;13.684;2022-10-24T05:50:33;17.60;99.90
3350;DHT22;1688;51.000;13.684;2022-10-24T05:53:00;17.60;99.90
3350;DHT22;1688;51.000;13.684;2022-10-24T05:55:26;17.60;99.90
3350;DHT22;1688;51.000;13.684;2022-10-24T05:57:52;17.50;99.90
3350;DHT22;1688;51.000;13.684;2022-10-24T06:00:18;17.50;99.90
3350;DHT22;1688;51.000;13.684;2022-10-24T06:02:44;17.60;99.90
3350;DHT22;1688;51.000;13.684;2022-10-24T06:05:11;17.50;99.90
3350;DHT22;1688;51.000;13.684;2022-10-24T06:07:38;17.40;99.90
3350;DHT22;1688;51.000;13.684;2022-10-24T06:10:05;17.40;99.90
3350;DHT22;1688;51.000;13.684;2022-10-24T06:12:33;17.40;99.90
3350;DHT22;1688;51.000;13.684;2022-10-24T06:15:02;17.40;99.90
3350;DHT22;1688;51.000;13.684;2022-10-24T06:17:29;17.40;99.90
3350;DHT22;1688;51.000;13.684;2022-10-24T06:19:55;17.40;99.90
3350;DHT22;1688;51.000;13.684;2022-10-24T06:22:21;17.40;99.90
3350;DHT22;1688;51.000;13.684;2022-10-24T06:24:49;17.40;99.90
3350;DHT22;1688;51.000;13.684;2022-10-24T06:27:14;17.40;99.90
3350;DHT22;1688;51.000;13.684;2022-10-24T06:29:40;17.40;99.90
3350;DHT22;1688;51.000;13.684;2022-10-24T06:32:06;17.50;99.90
3350;DHT22;1688;51.000;13.684;2022-10-24T06:34:32;17.60;99.90
3350;DHT22;1688;51.000;13.684;2022-10-24T06:36:59;17.60;99.90
3350;DHT22;1688;51.000;13.684;2022-10-24T06:39:24;17.60;99.90
3350;DHT22;1688;51.000;13.684;2022-10-24T06:41:50;17.60;99.90
3350;DHT22;1688;51.000;13.684;2022-10-24T06:44:16;17.60;99.90
3350;DHT22;1688;51.000;13.684;2022-10-24T06:46:42;17.70;99.90
3350;DHT22;1688;51.000;13.684;2022-10-24T06:49:07;17.80;99.90
3350;DHT22;1688;51.000;13.684;2022-10-24T06:51:34;17.80;99.90
3350;DHT22;1688;51.000;13.684;2022-10-24T06:54:00;17.90;99.90
3350;DHT22;1688;51.000;13.684;2022-10-24T06:56:26;18.00;99.90
3350;DHT22;1688;51.000;13.684;2022-10-24T06:58:54;17.90;99.90
3350;DHT22;1688;51.000;13.684;2022-10-24T07:01:22;18.00;99.90
3350;DHT22;1688;51.000;13.684;2022-10-24T07:03:48;18.10;99.90
3350;DHT22;1688;51.000;13.684;2022-10-24T07:06:24;18.20;99.90
3350;DHT22;1688;51.000;13.684;2022-10-24T07:08:52;18.20;99.90
3350;DHT22;1688;51.000;13.684;2022-10-24T07:11:18;18.40;99.90
3350;DHT22;1688;51.000;13.684;2022-10-24T07:13:44;18.30;99.90
3350;DHT22;1688;51.000;13.684;2022-10-24T07:16:10;18.50;99.90
3350;DHT22;1688;51.000;13.684;2022-10-24T07:18:36;18.40;99.90
3350;DHT22;1688;51.000;13.684;2022-10-24T07:21:04;18.50;99.90
3350;DHT22;1688;51.000;13.684;2022-10-24T07:23:31;18.50;99.90
3350;DHT22;1688;51.000;13.684;2022-10-24T07:26:09;18.60;99.90
3350;DHT22;1688;51.000;13.684;2022-10-24T07:28:36;18.70;99.90
3350;DHT22;1688;51.000;13.684;2022-10-24T07:31:02;18.80;99.90
3350;DHT22;1688;51.000;13.684;2022-10-24T07:33:29;18.80;99.90
3350;DHT22;1688;51.000;13.684;2022-10-24T07:35:55;18.90;99.90
3350;DHT22;1688;51.000;13.684;2022-10-24T07:38:20;18.80;99.90
3350;DHT22;1688;51.000;13.684;2022-10-24T07:40:46;18.90;99.90
3350;DHT22;1688;51.000;13.684;2022-10-24T07:43:12;18.80;99.90
3350;DHT22;1688;51.000;13.684;2022-10-24T07:45:39;18.90;99.90
3350;DHT22;1688;51.000;13.684;2022-10-24T07:48:06;18.80;99.90
3350;DHT22;1688;51.000;13.684;2022-10-24T07:50:33;18.90;99.90
3350;DHT22;1688;51.000;13.684;2022-10-24T07:52:59;19.00;99.90
3350;DHT22;1688;51.000;13.684;2022-10-24T07:55:25;19.20;99.90
3350;DHT22;1688;51.000;13.684;2022-10-24T07:57:50;19.30;99.90
3350;DHT22;1688;51.000;13.684;2022-10-24T08:00:16;19.50;99.90
3350;DHT22;1688;51.000;13.684;2022-10-24T08:02:50;19.70;99.90
3350;DHT22;1688;51.000;13.684;2022-10-24T08:05:16;19.80;99.90
3350;DHT22;1688;51.000;13.684;2022-10-24T08:07:41;19.80;99.90
3350;DHT22;1688;51.000;13.684;2022-10-24T08:10:11;19.80;99.90
3350;DHT22;1688;51.000;13.684;2022-10-24T08:12:37;19.80;99.90
3350;DHT22;1688;51.000;13.684;2022-10-24T08:15:03;19.90;99.90
3350;DHT22;1688;51.000;13.684;2022-10-24T08:17:29;20.00;99.90
3350;DHT22;1688;51.000;13.684;2022-10-24T08:19:55;20.00;99.90
3350;DHT22;1688;51.000;13.684;2022-10-24T08:22:21;20.00;99.90
3350;DHT22;1688;51.000;13.684;2022-10-24T08:24:47;20.10;99.90
3350;DHT22;1688;51.000;13.684;2022-10-24T08:27:13;20.10;99.90
3350;DHT22;1688;51.000;13.684;2022-10-24T08:29:39;20.20;99.90
3350;DHT22;1688;51.000;13.684;2022-10-24T08:32:05;20.30;99.90
3350;DHT22;1688;51.000;13.684;2022-10-24T08:34:33;20.30;99.90
3350;DHT22;1688;51.000;13.684;2022-10-24T08:36:59;20.30;99.90
3350;DHT22;1688;51.000;13.684;2022-10-24T08:39:25;20.30;99.90
3350;DHT22;1688;51.000;13.684;2022-10-24T08:41:57;20.40;99.90
3350;DHT22;1688;51.000;13.684;2022-10-24T08:44:30;20.50;99.90
3350;DHT22;1688;51.000;13.684;2022-10-24T08:49:51;20.50;99.90
3350;DHT22;1688;51.000;13.684;2022-10-24T08:52:39;20.50;99.90
3350;DHT22;1688;51.000;13.684;2022-10-24T08:55:14;20.40;99.90
3350;DHT22;1688;51.000;13.684;2022-10-24T08:57:44;20.40;99.90
3350;DHT22;1688;51.000;13.684;2022-10-24T09:00:20;20.40;99.90
3350;DHT22;1688;51.000;13.684;2022-10-24T09:03:10;20.50;99.90
3350;DHT22;1688;51.000;13.684;2022-10-24T09:05:44;20.50;99.90
3350;DHT22;1688;51.000;13.684;2022-10-24T09:08:37;20.50;99.90
3350;DHT22;1688;51.000;13.684;2022-10-24T09:11:06;20.60;99.90
3350;DHT22;1688;51.000;13.684;2022-10-24T09:13:35;20.60;99.90
3350;DHT22;1688;51.000;13.684;2022-10-24T09:16:02;20.70;99.90
3350;DHT22;1688;51.000;13.684;2022-10-24T09:18:40;20.70;99.90
3350;DHT22;1688;51.000;13.684;2022-10-24T09:21:11;20.80;99.90
3350;DHT22;1688;51.000;13.684;2022-10-24T09:23:37;20.80;99.90
3350;DHT22;1688;51.000;13.684;2022-10-24T09:26:07;20.80;99.90
3350;DHT22;1688;51.000;13.684;2022-10-24T09:28:39;20.70;99.90
3350;DHT22;1688;51.000;13.684;2022-10-24T09:31:15;20.60;99.90
3350;DHT22;1688;51.000;13.684;2022-10-24T09:33:44;20.70;99.90
3350;DHT22;1688;51.000;13.684;2022-10-24T09:36:12;20.60;99.90
3350;DHT22;1688;51.000;13.684;2022-10-24T09:38:39;20.60;99.90
3350;DHT22;1688;51.000;13.684;2022-10-24T09:41:29;20.60;99.90
3350;DHT22;1688;51.000;13.684;2022-10-24T09:44:00;20.50;99.90
3350;DHT22;1688;51.000;13.684;2022-10-24T09:46:35;20.60;99.90
3350;DHT22;1688;51.000;13.684;2022-10-24T09:51:41;20.60;99.90
3350;DHT22;1688;51.000;13.684;2022-10-24T09:56:53;20.80;99.90
3350;DHT22;1688;51.000;13.684;2022-10-24T09:59:35;20.80;99.90
3350;DHT22;1688;51.000;13.684;2022-10-24T10:02:24;21.00;99.90
3350;DHT22;1688;51.000;13.684;2022-10-24T10:07:38;21.30;99.90
3350;DHT22;1688;51.000;13.684;2022-10-24T10:10:29;21.30;99.90
3350;DHT22;1688;51.000;13.684;2022-10-24T10:13:04;21.30;99.90
3350;DHT22;1688;51.000;13.684;2022-10-24T10:15:59;21.30;99.90
3350;DHT22;1688;51.000;13.684;2022-10-24T10:21:11;21.10;99.90
3350;DHT22;1688;51.000;13.684;2022-10-24T10:26:23;20.90;99.90
3350;DHT22;1688;51.000;13.684;2022-10-24T10:31:32;20.80;99.90
3350;DHT22;1688;51.000;13.684;2022-10-24T10:34:15;20.70;99.90
3350;DHT22;1688;51.000;13.684;2022-10-24T10:45:55;20.60;99.90
3350;DHT22;1688;51.000;13.684;2022-10-24T10:51:39;20.60;99.90
3350;DHT22;1688;51.000;13.684;2022-10-24T10:57:21;20.50;99.90
3350;DHT22;1688;51.000;13.684;2022-10-24T11:00:38;20.40;99.90
3350;DHT22;1688;51.000;13.684;2022-10-24T11:06:16;20.10;99.90
3350;DHT22;1688;51.000;13.684;2022-10-24T11:11:37;20.00;99.90
3350;DHT22;1688;51.000;13.684;2022-10-24T11:14:34;20.00;99.90
3350;DHT22;1688;51.000;13.684;2022-10-24T11:17:26;19.80;99.90
3350;DHT22;1688;51.000;13.684;2022-10-24T11:19:59;19.80;99.90
3350;DHT22;1688;51.000;13.684;2022-10-24T11:22:31;19.70;99.90
3350;DHT22;1688;51.000;13.684;2022-10-24T11:25:15;19.80;99.90
3350;DHT22;1688;51.000;13.684;2022-10-24T11:27:49;19.90;99.90
3350;DHT22;1688;51.000;13.684;2022-10-24T11:30:18;20.00;99.90
3350;DHT22;1688;51.000;13.684;2022-10-24T11:32:58;20.00;99.90
3350;DHT22;1688;51.000;13.684;2022-10-24T11:35:31;20.10;99.90
3350;DHT22;1688;51.000;13.684;2022-10-24T11:38:13;20.10;99.90
3350;DHT22;1688;51.000;13.684;2022-10-24T11:40:41;20.10;99.90
3350;DHT22;1688;51.000;13.684;2022-10-24T11:43:20;20.10;99.90
3350;DHT22;1688;51.000;13.684;2022-10-24T11:46:19;20.10;99.90
3350;DHT22;1688;51.000;13.684;2022-10-24T11:48:56;20.10;99.90
3350;DHT22;1688;51.000;13.684;2022-10-24T11:51:36;20.20;99.80
3350;DHT22;1688;51.000;13.684;2022-10-24T11:54:10;20.10;99.30
3350;DHT22;1688;51.000;13.684;2022-10-24T11:56:41;20.00;98.60
3350;DHT22;1688;51.000;13.684;2022-10-24T11:59:15;20.00;98.10
3350;DHT22;1688;51.000;13.684;2022-10-24T12:04:53;20.20;97.40
3350;DHT22;1688;51.000;13.684;2022-10-24T12:10:44;20.30;97.40
3350;DHT22;1688;51.000;13.684;2022-10-24T12:18:50;20.40;95.40
3350;DHT22;1688;51.000;13.684;2022-10-24T12:21:24;20.40;96.40
3350;DHT22;1688;51.000;13.684;2022-10-24T12:23:53;20.40;96.60
3350;DHT22;1688;51.000;13.684;2022-10-24T12:26:28;20.50;96.70
3350;DHT22;1688;51.000;13.684;2022-10-24T12:28:55;20.50;96.30
3350;DHT22;1688;51.000;13.684;2022-10-24T12:31:26;20.50;96.40
3350;DHT22;1688;51.000;13.684;2022-10-24T12:39:48;20.60;95.50
3350;DHT22;1688;51.000;13.684;2022-10-24T12:43:05;20.60;95.60
3350;DHT22;1688;51.000;13.684;2022-10-24T12:58:28;20.40;96.00
3350;DHT22;1688;51.000;13.684;2022-10-24T13:00:56;20.30;96.30
3350;DHT22;1688;51.000;13.684;2022-10-24T13:03:55;20.40;96.40
3350;DHT22;1688;51.000;13.684;2022-10-24T13:06:34;20.40;96.40
3350;DHT22;1688;51.000;13.684;2022-10-24T13:09:36;20.30;96.60
3350;DHT22;1688;51.000;13.684;2022-10-24T13:12:34;20.30;96.30
3350;DHT22;1688;51.000;13.684;2022-10-24T13:15:25;20.20;96.70
3350;DHT22;1688;51.000;13.684;2022-10-24T13:23:34;20.00;97.10
3350;DHT22;1688;51.000;13.684;2022-10-24T13:26:01;20.00;97.10
3350;DHT22;1688;51.000;13.684;2022-10-24T13:36:15;20.00;97.70
3350;DHT22;1688;51.000;13.684;2022-10-24T13:38:58;20.00;97.50
3350;DHT22;1688;51.000;13.684;2022-10-24T13:41:35;19.90;98.00
3350;DHT22;1688;51.000;13.684;2022-10-24T13:44:42;19.90;98.50
3350;DHT22;1688;51.000;13.684;2022-10-24T13:49:52;19.90;98.90
3350;DHT22;1688;51.000;13.684;2022-10-24T13:55:04;19.90;99.10
3350;DHT22;1688;51.000;13.684;2022-10-24T14:00:20;20.00;98.70
3350;DHT22;1688;51.000;13.684;2022-10-24T14:02:46;19.90;98.60
3350;DHT22;1688;51.000;13.684;2022-10-24T14:05:28;19.90;98.20
3350;DHT22;1688;51.000;13.684;2022-10-24T14:07:56;19.80;98.00
3350;DHT22;1688;51.000;13.684;2022-10-24T14:10:22;19.70;98.50
3350;DHT22;1688;51.000;13.684;2022-10-24T14:12:49;19.60;98.30
3350;DHT22;1688;51.000;13.684;2022-10-24T14:15:23;19.60;98.20
3350;DHT22;1688;51.000;13.684;2022-10-24T14:18:10;19.70;98.20
3350;DHT22;1688;51.000;13.684;2022-10-24T14:20:38;19.70;98.30
3350;DHT22;1688;51.000;13.684;2022-10-24T14:23:27;19.70;98.10
3350;DHT22;1688;51.000;13.684;2022-10-24T14:25:57;19.70;98.30
3350;DHT22;1688;51.000;13.684;2022-10-24T14:28:30;19.70;98.40
3350;DHT22;1688;51.000;13.684;2022-10-24T14:31:05;19.70;97.90
3350;DHT22;1688;51.000;13.684;2022-10-24T14:33:45;19.70;97.90
3350;DHT22;1688;51.000;13.684;2022-10-24T14:36:17;19.70;98.10
3350;DHT22;1688;51.000;13.684;2022-10-24T14:38:47;19.80;98.00
3350;DHT22;1688;51.000;13.684;2022-10-24T14:41:24;19.70;97.90
3350;DHT22;1688;51.000;13.684;2022-10-24T14:43:54;19.70;97.90
3350;DHT22;1688;51.000;13.684;2022-10-24T14:49:46;19.70;98.00
3350;DHT22;1688;51.000;13.684;2022-10-24T14:51:49;19.70;98.00
3350;DHT22;1688;51.000;13.684;2022-10-24T14:54:21;19.70;98.20
3350;DHT22;1688;51.000;13.684;2022-10-24T14:56:48;19.70;98.50
3350;DHT22;1688;51.000;13.684;2022-10-24T14:59:24;19.70;98.40
3350;DHT22;1688;51.000;13.684;2022-10-24T15:04:42;19.60;98.50
3350;DHT22;1688;51.000;13.684;2022-10-24T15:09:58;19.50;98.50
3350;DHT22;1688;51.000;13.684;2022-10-24T15:12:39;19.40;98.40
3350;DHT22;1688;51.000;13.684;2022-10-24T15:15:18;19.30;98.60
3350;DHT22;1688;51.000;13.684;2022-10-24T15:17:44;19.30;99.30
3350;DHT22;1688;51.000;13.684;2022-10-24T15:20:16;19.20;98.80
3350;DHT22;1688;51.000;13.684;2022-10-24T15:22:48;19.20;98.90
3350;DHT22;1688;51.000;13.684;2022-10-24T15:25:40;19.00;99.10
3350;DHT22;1688;51.000;13.684;2022-10-24T15:28:05;19.00;99.20
3350;DHT22;1688;51.000;13.684;2022-10-24T15:30:34;19.00;99.40
3350;DHT22;1688;51.000;13.684;2022-10-24T15:33:02;19.00;99.20
3350;DHT22;1688;51.000;13.684;2022-10-24T15:35:30;18.90;99.40
3350;DHT22;1688;51.000;13.684;2022-10-24T15:38:09;18.90;99.80
3350;DHT22;1688;51.000;13.684;2022-10-24T15:40:35;18.90;99.80
3350;DHT22;1688;51.000;13.684;2022-10-24T15:43:07;19.00;99.90
3350;DHT22;1688;51.000;13.684;2022-10-24T15:45:34;19.00;99.80
3350;DHT22;1688;51.000;13.684;2022-10-24T15:48:00;18.90;99.90
3350;DHT22;1688;51.000;13.684;2022-10-24T15:50:25;18.90;99.90
3350;DHT22;1688;51.000;13.684;2022-10-24T15:52:54;18.90;99.90
3350;DHT22;1688;51.000;13.684;2022-10-24T15:55:23;18.70;99.90
3350;DHT22;1688;51.000;13.684;2022-10-24T15:57:50;18.70;99.90
3350;DHT22;1688;51.000;13.684;2022-10-24T16:00:18;18.70;99.90
3350;DHT22;1688;51.000;13.684;2022-10-24T16:02:46;18.70;99.90
3350;DHT22;1688;51.000;13.684;2022-10-24T16:05:22;18.70;99.90
3350;DHT22;1688;51.000;13.684;2022-10-24T16:07:49;18.70;99.90
3350;DHT22;1688;51.000;13.684;2022-10-24T16:10:17;18.70;99.90
3350;DHT22;1688;51.000;13.684;2022-10-24T16:12:44;18.70;99.90
3350;DHT22;1688;51.000;13.684;2022-10-24T16:15:26;18.60;99.90
3350;DHT22;1688;51.000;13.684;2022-10-24T16:17:52;18.60;99.90
3350;DHT22;1688;51.000;13.684;2022-10-24T16:20:21;18.60;99.90
3350;DHT22;1688;51.000;13.684;2022-10-24T16:22:47;18.50;99.90
3350;DHT22;1688;51.000;13.684;2022-10-24T16:25:16;18.50;99.90
3350;DHT22;1688;51.000;13.684;2022-10-24T16:27:42;18.50;99.90
3350;DHT22;1688;51.000;13.684;2022-10-24T16:30:10;18.60;99.90
3350;DHT22;1688;51.000;13.684;2022-10-24T16:32:36;18.50;99.90
3350;DHT22;1688;51.000;13.684;2022-10-24T16:35:02;18.50;99.90
3350;DHT22;1688;51.000;13.684;2022-10-24T16:37:28;18.60;99.90
3350;DHT22;1688;51.000;13.684;2022-10-24T16:39:54;18.50;99.90
3350;DHT22;1688;51.000;13.684;2022-10-24T16:42:20;18.60;99.90
3350;DHT22;1688;51.000;13.684;2022-10-24T16:44:47;18.60;99.90
3350;DHT22;1688;51.000;13.684;2022-10-24T16:47:13;18.60;99.90
3350;DHT22;1688;51.000;13.684;2022-10-24T16:49:38;18.50;99.90
3350;DHT22;1688;51.000;13.684;2022-10-24T16:52:04;18.50;99.90
3350;DHT22;1688;51.000;13.684;2022-10-24T16:54:30;18.50;99.90
3350;DHT22;1688;51.000;13.684;2022-10-24T16:56:56;18.50;99.90
3350;DHT22;1688;51.000;13.684;2022-10-24T16:59:22;18.40;99.90
3350;DHT22;1688;51.000;13.684;2022-10-24T17:01:48;18.40;99.90
3350;DHT22;1688;51.000;13.684;2022-10-24T17:04:14;18.30;99.90
3350;DHT22;1688;51.000;13.684;2022-10-24T17:06:40;18.30;99.90
3350;DHT22;1688;51.000;13.684;2022-10-24T17:09:05;18.30;99.90
3350;DHT22;1688;51.000;13.684;2022-10-24T17:11:31;18.20;99.90
3350;DHT22;1688;51.000;13.684;2022-10-24T17:13:57;18.30;99.90
3350;DHT22;1688;51.000;13.684;2022-10-24T17:16:23;18.20;99.90
3350;DHT22;1688;51.000;13.684;2022-10-24T17:18:52;18.20;99.90
3350;DHT22;1688;51.000;13.684;2022-10-24T17:21:18;18.10;99.90
3350;DHT22;1688;51.000;13.684;2022-10-24T17:23:52;18.10;99.90
3350;DHT22;1688;51.000;13.684;2022-10-24T17:26:19;18.00;99.90
3350;DHT22;1688;51.000;13.684;2022-10-24T17:28:45;18.00;99.90
3350;DHT22;1688;51.000;13.684;2022-10-24T17:31:12;18.00;99.90
3350;DHT22;1688;51.000;13.684;2022-10-24T17:33:39;18.00;99.90
3350;DHT22;1688;51.000;13.684;2022-10-24T17:36:12;17.90;99.90
3350;DHT22;1688;51.000;13.684;2022-10-24T17:41:24;17.90;99.90
3350;DHT22;1688;51.000;13.684;2022-10-24T17:43:52;17.90;99.90
3350;DHT22;1688;51.000;13.684;2022-10-24T17:46:18;17.90;99.90
3350;DHT22;1688;51.000;13.684;2022-10-24T17:48:44;17.80;99.90
3350;DHT22;1688;51.000;13.684;2022-10-24T17:51:10;17.80;99.90
3350;DHT22;1688;51.000;13.684;2022-10-24T17:53:39;17.80;99.90
3350;DHT22;1688;51.000;13.684;2022-10-24T17:56:05;17.90;99.90
3350;DHT22;1688;51.000;13.684;2022-10-24T17:58:35;17.80;99.90
3350;DHT22;1688;51.000;13.684;2022-10-24T18:01:01;17.80;99.90